createdAt,value
2022-11-09T00:01:21.460Z,38.03
2022-11-09T00:03:53.996Z,41.47
2022-11-09T00:06:21.131Z,38.38
2022-11-09T00:08:49.897Z,31.65
2022-11-09T00:11:17.547Z,36.90
2022-11-09T00:13:45.854Z,37.08
2022-11-09T00:16:17.005Z,37.35
2022-11-09T00:18:47.591Z,35.30
2022-11-09T00:21:24.031Z,34.72
2022-11-09T00:23:51.911Z,29.15
2022-11-09T00:26:20.530Z,36.20
2022-11-09T00:28:48.637Z,41.80
2022-11-09T00:31:20.435Z,37.55
2022-11-09T00:33:56.223Z,35.08
2022-11-09T00:36:27.677Z,32.15
2022-11-09T00:39:00.526Z,37.42
2022-11-09T00:41:28.295Z,48.75
2022-11-09T00:43:55.500Z,38.88
2022-11-09T00:46:22.924Z,36.30
2022-11-09T00:48:50.211Z,39.85
2022-11-09T00:51:17.645Z,36.88
2022-11-09T00:53:47.194Z,32.08
2022-11-09T00:56:14.750Z,37.08
2022-11-09T00:58:42.484Z,34.75
2022-11-09T01:01:20.177Z,34.90
2022-11-09T01:03:47.528Z,33.72
2022-11-09T01:06:38.877Z,32.03
2022-11-09T01:09:06.076Z,34.15
2022-11-09T01:11:33.310Z,33.72
2022-11-09T01:14:01.346Z,36.70
2022-11-09T01:16:28.499Z,32.35
2022-11-09T01:18:57.377Z,35.35
2022-11-09T01:21:25.877Z,33.67
2022-11-09T01:23:53.107Z,36.50
2022-11-09T01:26:20.185Z,36.45
2022-11-09T01:28:47.312Z,32.50
2022-11-09T01:31:20.275Z,31.95
2022-11-09T01:33:47.399Z,32.20
2022-11-09T01:36:22.069Z,34.28
2022-11-09T01:38:50.308Z,29.80
2022-11-09T01:41:27.413Z,33.38
2022-11-09T01:44:35.355Z,27.75
2022-11-09T01:47:12.906Z,29.58
2022-11-09T01:49:46.909Z,31.90
2022-11-09T01:52:26.452Z,27.80
2022-11-09T01:55:07.900Z,31.27
2022-11-09T01:57:46.775Z,29.65
2022-11-09T02:00:18.343Z,25.88
2022-11-09T02:03:02.648Z,31.45
2022-11-09T02:05:33.564Z,32.72
2022-11-09T02:08:03.040Z,27.83
2022-11-09T02:11:14.406Z,28.75
2022-11-09T02:13:49.770Z,31.17
2022-11-09T02:16:17.560Z,27.05
2022-11-09T02:18:59.267Z,31.73
2022-11-09T02:21:29.963Z,25.27
2022-11-09T02:23:58.283Z,30.55
2022-11-09T02:26:35.119Z,30.80
2022-11-09T02:29:05.570Z,25.98
2022-11-09T02:31:37.992Z,30.23
2022-11-09T02:34:13.552Z,33.53
2022-11-09T02:36:40.709Z,30.27
2022-11-09T02:39:07.752Z,30.17
2022-11-09T02:41:47.752Z,29.25
2022-11-09T02:44:16.775Z,27.45
2022-11-09T02:46:44.647Z,26.73
2022-11-09T02:49:12.098Z,24.80
2022-11-09T02:51:39.190Z,25.83
2022-11-09T02:54:06.231Z,30.08
2022-11-09T02:56:33.396Z,25.67
2022-11-09T02:59:00.641Z,33.78
2022-11-09T03:01:27.730Z,29.10
2022-11-09T03:03:54.917Z,32.03
2022-11-09T03:06:34.467Z,28.80
2022-11-09T03:09:09.858Z,26.65
2022-11-09T03:11:40.570Z,25.98
2022-11-09T03:14:09.876Z,28.25
2022-11-09T03:16:40.088Z,31.58
2022-11-09T03:19:07.753Z,26.05
2022-11-09T03:21:35.523Z,24.13
2022-11-09T03:24:02.873Z,27.30
2022-11-09T03:26:29.909Z,26.58
2022-11-09T03:28:59.369Z,30.23
2022-11-09T03:31:26.434Z,25.60
2022-11-09T03:33:53.494Z,27.65
2022-11-09T03:36:20.597Z,29.25
2022-11-09T03:38:47.719Z,25.73
2022-11-09T03:41:14.741Z,26.73
2022-11-09T03:43:41.838Z,25.27
2022-11-09T03:46:08.868Z,29.98
2022-11-09T03:48:35.929Z,24.80
2022-11-09T03:51:02.950Z,25.52
2022-11-09T03:53:30.055Z,31.48
2022-11-09T03:55:58.651Z,31.70
2022-11-09T03:58:25.845Z,27.25
2022-11-09T04:00:52.903Z,26.25
2022-11-09T04:03:20.221Z,30.88
2022-11-09T04:05:47.364Z,24.98
2022-11-09T04:08:14.457Z,26.52
2022-11-09T04:10:41.462Z,28.05
2022-11-09T04:13:08.897Z,25.73
2022-11-09T04:15:36.107Z,30.30
2022-11-09T04:18:03.773Z,28.67
2022-11-09T04:20:32.596Z,28.60
2022-11-09T04:23:05.742Z,28.17
2022-11-09T04:25:38.189Z,30.25
2022-11-09T04:28:07.374Z,31.83
2022-11-09T04:30:36.547Z,24.13
2022-11-09T04:33:04.586Z,29.27
2022-11-09T04:35:33.873Z,25.02
2022-11-09T04:38:06.593Z,26.52
2022-11-09T04:40:35.509Z,38.88
2022-11-09T04:43:07.067Z,51.22
2022-11-09T04:45:35.365Z,41.63
2022-11-09T04:48:05.614Z,30.77
2022-11-09T04:50:33.609Z,35.15
2022-11-09T04:53:13.730Z,31.95
2022-11-09T04:55:41.740Z,27.73
2022-11-09T04:58:09.071Z,26.50
2022-11-09T05:00:37.098Z,31.13
2022-11-09T05:03:06.466Z,36.72
2022-11-09T05:05:36.206Z,36.08
2022-11-09T05:08:07.060Z,28.02
2022-11-09T05:10:34.458Z,40.92
2022-11-09T05:13:07.512Z,36.38
2022-11-09T05:15:35.969Z,33.92
2022-11-09T05:18:04.154Z,34.60
2022-11-09T05:20:32.133Z,36.45
2022-11-09T05:23:18.970Z,35.60
2022-11-09T05:25:47.066Z,34.55
2022-11-09T05:28:14.461Z,35.33
2022-11-09T05:30:41.595Z,32.78
2022-11-09T05:33:08.815Z,34.60
2022-11-09T05:35:35.872Z,32.90
2022-11-09T05:38:03.187Z,40.65
2022-11-09T05:40:30.299Z,35.17
2022-11-09T05:42:57.358Z,35.47
2022-11-09T05:45:42.939Z,39.58
2022-11-09T05:48:12.813Z,35.00
2022-11-09T05:50:41.323Z,35.40
2022-11-09T05:53:09.632Z,33.15
2022-11-09T05:55:36.914Z,39.10
2022-11-09T05:58:06.904Z,37.42
2022-11-09T06:00:35.548Z,34.00
2022-11-09T06:03:09.156Z,33.67
2022-11-09T06:05:39.147Z,30.55
2022-11-09T06:08:13.232Z,32.80
2022-11-09T06:10:42.042Z,40.05
2022-11-09T06:13:10.015Z,40.08
2022-11-09T06:15:37.135Z,28.70
2022-11-09T06:18:04.321Z,55.22
2022-11-09T06:20:33.169Z,70.88
2022-11-09T06:23:03.902Z,46.65
2022-11-09T06:25:35.373Z,53.88
2022-11-09T06:28:04.994Z,40.63
2022-11-09T06:30:32.131Z,39.05
2022-11-09T06:33:05.141Z,40.50
2022-11-09T06:35:32.245Z,40.67
2022-11-09T06:38:00.739Z,34.90
2022-11-09T06:40:28.554Z,35.85
2022-11-09T06:43:00.312Z,35.38
2022-11-09T06:45:29.418Z,36.72
2022-11-09T06:48:01.959Z,33.10
2022-11-09T06:50:32.435Z,34.92
2022-11-09T06:53:03.700Z,40.25
2022-11-09T06:55:33.263Z,37.22
2022-11-09T06:58:01.044Z,59.60
2022-11-09T07:00:28.642Z,52.78
2022-11-09T07:02:55.841Z,43.67
2022-11-09T07:05:23.692Z,57.95
2022-11-09T07:07:50.919Z,46.50
2022-11-09T07:10:20.983Z,43.72
2022-11-09T07:12:48.335Z,48.20
2022-11-09T07:15:18.739Z,45.53
2022-11-09T07:17:46.017Z,40.22
2022-11-09T07:20:16.493Z,52.67
2022-11-09T07:22:43.662Z,43.20
2022-11-09T07:25:14.647Z,42.80
2022-11-09T07:27:41.755Z,51.25
2022-11-09T07:30:09.915Z,44.33
2022-11-09T07:35:25.945Z,49.75
2022-11-09T07:37:53.241Z,46.05
2022-11-09T07:40:20.780Z,45.03
2022-11-09T07:42:47.872Z,45.50
2022-11-09T07:45:37.472Z,42.92
2022-11-09T07:48:10.176Z,52.50
2022-11-09T07:50:39.192Z,53.47
2022-11-09T07:53:07.362Z,48.90
2022-11-09T07:55:35.542Z,46.20
2022-11-09T07:58:10.681Z,38.80
2022-11-09T08:00:41.151Z,34.10
2022-11-09T08:03:09.380Z,41.70
2022-11-09T08:05:36.875Z,34.72
2022-11-09T08:08:07.948Z,40.08
2022-11-09T08:10:39.372Z,40.22
2022-11-09T08:13:13.438Z,49.42
2022-11-09T08:15:42.266Z,48.80
2022-11-09T08:18:17.765Z,34.05
2022-11-09T08:20:45.442Z,40.63
2022-11-09T08:23:17.711Z,34.75
2022-11-09T08:28:18.540Z,43.10
2022-11-09T08:30:46.582Z,34.65
2022-11-09T08:33:14.249Z,42.53
2022-11-09T08:35:41.414Z,42.67
2022-11-09T08:38:09.703Z,34.47
2022-11-09T08:40:37.077Z,34.75
2022-11-09T08:43:07.451Z,38.20
2022-11-09T08:45:37.168Z,39.03
2022-11-09T08:48:08.032Z,32.55
2022-11-09T08:50:36.917Z,39.97
2022-11-09T08:53:04.809Z,35.33
2022-11-09T08:55:32.563Z,35.85
2022-11-09T08:58:02.030Z,34.80
2022-11-09T09:00:29.987Z,35.85
2022-11-09T09:02:57.162Z,41.53
2022-11-09T09:05:24.386Z,34.05
2022-11-09T09:07:51.494Z,37.53
2022-11-09T09:10:18.689Z,27.33
2022-11-09T09:12:46.051Z,34.85
2022-11-09T09:15:13.194Z,37.40
2022-11-09T09:17:40.300Z,34.40
2022-11-09T09:20:07.894Z,30.90
2022-11-09T09:22:35.219Z,28.80
2022-11-09T09:25:02.925Z,29.20
2022-11-09T09:27:30.312Z,29.70
2022-11-09T09:29:58.506Z,26.13
2022-11-09T09:32:26.159Z,31.17
2022-11-09T09:34:53.242Z,31.10
2022-11-09T09:37:22.936Z,25.30
2022-11-09T09:39:50.692Z,29.15
2022-11-09T09:42:31.398Z,27.70
2022-11-09T09:45:28.012Z,29.13
2022-11-09T09:48:22.918Z,24.63
2022-11-09T09:50:54.431Z,28.38
2022-11-09T09:53:25.292Z,25.50
2022-11-09T09:56:02.546Z,24.55
2022-11-09T09:58:38.057Z,24.98
2022-11-09T10:01:21.168Z,26.38
2022-11-09T10:03:49.107Z,26.42
2022-11-09T10:06:59.452Z,25.83
2022-11-09T10:09:45.563Z,29.65
2022-11-09T10:12:39.915Z,23.00
2022-11-09T10:15:34.224Z,23.13
2022-11-09T10:18:22.613Z,24.80
2022-11-09T10:21:08.576Z,23.95
2022-11-09T10:23:41.802Z,21.80
2022-11-09T10:26:24.215Z,26.13
2022-11-09T10:29:16.812Z,36.60
2022-11-09T10:31:47.775Z,26.92
2022-11-09T10:34:33.954Z,26.08
2022-11-09T10:37:23.676Z,25.08
2022-11-09T10:40:09.480Z,27.70
2022-11-09T10:42:36.611Z,23.88
2022-11-09T10:45:42.847Z,23.38
2022-11-09T10:48:12.994Z,21.88
2022-11-09T10:50:51.984Z,26.80
2022-11-09T10:53:24.368Z,21.95
2022-11-09T10:56:05.240Z,25.55
2022-11-09T10:58:39.137Z,24.17
2022-11-09T11:01:15.809Z,20.80
2022-11-09T11:03:44.742Z,25.20
2022-11-09T11:06:14.593Z,27.35
2022-11-09T11:08:45.159Z,21.63
2022-11-09T11:11:38.198Z,23.25
2022-11-09T11:14:23.817Z,22.77
2022-11-09T11:16:53.274Z,22.98
2022-11-09T11:19:44.170Z,26.95
2022-11-09T11:22:14.484Z,26.98
2022-11-09T11:25:19.833Z,22.67
2022-11-09T11:27:54.825Z,25.83
2022-11-09T11:30:31.749Z,20.98
2022-11-09T11:32:59.194Z,22.85
2022-11-09T11:35:45.549Z,23.92
2022-11-09T11:38:38.703Z,22.85
2022-11-09T11:41:42.716Z,24.70
2022-11-09T11:44:52.690Z,25.83
2022-11-09T11:48:04.021Z,22.48
2022-11-09T11:50:45.852Z,23.35
2022-11-09T11:53:43.659Z,23.85
2022-11-09T11:56:27.358Z,28.13
2022-11-09T11:59:18.788Z,29.55
2022-11-09T12:02:16.417Z,29.98
2022-11-09T12:05:21.305Z,23.23
2022-11-09T12:08:06.417Z,22.33
2022-11-09T12:11:01.600Z,23.67
2022-11-09T12:14:13.017Z,25.77
2022-11-09T12:17:07.703Z,23.75
2022-11-09T12:20:14.000Z,25.33
2022-11-09T12:23:28.014Z,26.25
2022-11-09T12:26:04.041Z,26.02
2022-11-09T12:29:20.097Z,30.42
2022-11-09T12:32:29.013Z,32.30
2022-11-09T12:35:04.914Z,26.77
2022-11-09T12:37:44.564Z,29.25
2022-11-09T12:40:25.152Z,28.75
2022-11-09T12:43:17.067Z,26.17
2022-11-09T12:45:45.027Z,30.95
2022-11-09T12:48:34.879Z,31.42
2022-11-09T12:51:05.251Z,28.45
2022-11-09T12:53:39.985Z,28.42
2022-11-09T12:56:22.284Z,30.75
2022-11-09T12:58:49.362Z,25.40
2022-11-09T13:01:35.252Z,28.65
2022-11-09T13:04:04.853Z,27.38
2022-11-09T13:06:33.927Z,30.13
2022-11-09T13:09:20.388Z,26.65
2022-11-09T13:11:56.460Z,31.35
2022-11-09T13:14:23.519Z,30.15
2022-11-09T13:17:02.051Z,28.80
2022-11-09T13:19:50.322Z,30.65
2022-11-09T13:22:19.833Z,30.67
2022-11-09T13:24:57.211Z,34.55
2022-11-09T13:27:33.228Z,29.23
2022-11-09T13:30:23.363Z,39.75
2022-11-09T13:33:09.643Z,31.35
2022-11-09T13:35:42.497Z,33.80
2022-11-09T13:38:19.890Z,29.33
2022-11-09T13:40:55.866Z,26.17
2022-11-09T13:43:40.181Z,31.60
2022-11-09T13:46:52.780Z,36.92
2022-11-09T13:52:48.904Z,33.95
2022-11-09T13:55:41.877Z,31.13
2022-11-09T13:58:38.949Z,30.58
2022-11-09T14:01:05.954Z,32.10
2022-11-09T14:03:33.009Z,27.52
2022-11-09T14:06:03.017Z,31.42
2022-11-09T14:08:40.053Z,26.30
2022-11-09T14:11:48.204Z,28.48
2022-11-09T14:14:30.219Z,27.48
2022-11-09T14:17:16.880Z,38.25
2022-11-09T14:20:05.813Z,39.15
2022-11-09T14:22:40.142Z,38.35
2022-11-09T14:25:20.619Z,42.90
2022-11-09T14:28:00.416Z,52.35
2022-11-09T14:30:32.188Z,43.85
2022-11-09T14:32:59.546Z,42.25
2022-11-09T14:35:33.953Z,44.03
2022-11-09T14:38:18.686Z,41.30
2022-11-09T14:40:49.401Z,42.45
2022-11-09T14:43:28.663Z,38.30
2022-11-09T14:46:00.463Z,43.53
2022-11-09T14:48:30.029Z,43.00
2022-11-09T14:51:03.451Z,36.28
2022-11-09T14:53:35.231Z,35.42
2022-11-09T14:56:08.929Z,37.83
2022-11-09T14:58:43.655Z,41.03
2022-11-09T15:01:24.239Z,54.78
2022-11-09T15:04:27.246Z,56.03
2022-11-09T15:07:00.730Z,50.22
2022-11-09T15:09:45.808Z,46.05
2022-11-09T15:12:22.533Z,47.58
2022-11-09T15:15:02.875Z,45.78
2022-11-09T15:17:38.245Z,42.97
2022-11-09T15:20:28.983Z,43.30
2022-11-09T15:23:00.720Z,33.75
2022-11-09T15:25:32.587Z,35.85
2022-11-09T15:28:12.983Z,48.92
2022-11-09T15:30:54.070Z,36.50
2022-11-09T15:33:27.275Z,31.52
2022-11-09T15:36:20.735Z,34.40
2022-11-09T15:39:13.389Z,35.95
2022-11-09T15:44:08.271Z,30.95
2022-11-09T15:46:50.081Z,32.65
2022-11-09T15:49:26.761Z,39.58
2022-11-09T15:51:55.243Z,31.55
2022-11-09T15:54:24.344Z,34.97
2022-11-09T15:56:52.036Z,33.30
2022-11-09T15:59:26.272Z,32.10
2022-11-09T16:01:55.813Z,44.72
2022-11-09T16:04:23.044Z,48.90
2022-11-09T16:06:50.170Z,38.80
2022-11-09T16:09:17.286Z,42.33
2022-11-09T16:11:49.894Z,38.15
2022-11-09T16:14:17.920Z,39.50
2022-11-09T16:16:44.947Z,40.15
2022-11-09T16:19:16.100Z,41.80
2022-11-09T16:21:43.450Z,41.80
2022-11-09T16:24:10.452Z,44.58
2022-11-09T16:26:37.435Z,35.30
2022-11-09T16:29:04.955Z,34.22
2022-11-09T16:31:50.796Z,41.95
2022-11-09T16:34:18.370Z,44.15
2022-11-09T16:36:52.474Z,39.60
2022-11-09T16:39:25.938Z,48.28
2022-11-09T16:41:53.471Z,36.75
2022-11-09T16:44:24.117Z,34.10
2022-11-09T16:46:53.552Z,33.78
2022-11-09T16:49:20.670Z,47.72
2022-11-09T16:51:50.156Z,49.83
2022-11-09T16:54:17.378Z,33.20
2022-11-09T16:56:44.762Z,39.88
2022-11-09T16:59:11.915Z,38.13
2022-11-09T17:01:39.224Z,37.75
2022-11-09T17:04:06.652Z,44.80
2022-11-09T17:06:35.454Z,37.15
2022-11-09T17:09:02.614Z,37.53
2022-11-09T17:11:29.722Z,36.00
2022-11-09T17:13:59.218Z,37.50
2022-11-09T17:16:27.126Z,40.40
2022-11-09T17:18:56.604Z,36.45
2022-11-09T17:21:27.189Z,37.05
2022-11-09T17:23:56.899Z,37.40
2022-11-09T17:26:25.072Z,37.60
2022-11-09T17:28:54.713Z,36.08
2022-11-09T17:31:24.329Z,34.03
2022-11-09T17:33:51.318Z,38.38
2022-11-09T17:36:29.909Z,35.35
2022-11-09T17:39:06.748Z,37.92
2022-11-09T17:41:35.606Z,38.67
2022-11-09T17:44:05.986Z,38.22
2022-11-09T17:46:33.144Z,45.78
2022-11-09T17:49:00.239Z,41.05
2022-11-09T17:51:27.240Z,41.47
2022-11-09T17:53:54.928Z,42.13
2022-11-09T17:56:22.135Z,43.13
2022-11-09T17:58:49.213Z,41.15
2022-11-09T18:01:21.379Z,42.50
2022-11-09T18:06:24.052Z,41.83
2022-11-09T18:09:19.263Z,44.00
2022-11-09T18:11:41.095Z,39.97
2022-11-09T18:14:08.241Z,47.72
2022-11-09T18:16:35.348Z,43.88
2022-11-09T18:19:03.705Z,51.60
2022-11-09T18:21:31.832Z,42.40
2022-11-09T18:23:58.852Z,51.63
2022-11-09T18:26:31.733Z,48.80
2022-11-09T18:28:58.981Z,46.75
2022-11-09T18:31:28.877Z,52.67
2022-11-09T18:33:55.901Z,51.78
2022-11-09T18:36:23.568Z,52.10
2022-11-09T18:38:53.111Z,48.97
2022-11-09T18:41:23.091Z,54.78
2022-11-09T18:43:52.135Z,52.50
2022-11-09T18:46:21.519Z,48.78
2022-11-09T18:48:55.346Z,48.42
2022-11-09T18:51:22.403Z,55.00
2022-11-09T18:53:49.979Z,56.88
2022-11-09T18:56:24.674Z,53.67
2022-11-09T18:58:55.180Z,52.90
2022-11-09T19:01:27.642Z,52.50
2022-11-09T19:03:59.231Z,51.13
2022-11-09T19:06:27.742Z,55.45
2022-11-09T19:09:15.675Z,53.03
2022-11-09T19:11:42.727Z,48.92
2022-11-09T19:14:11.483Z,52.90
2022-11-09T19:16:38.783Z,50.67
2022-11-09T19:19:06.056Z,54.17
2022-11-09T19:22:01.587Z,55.22
2022-11-09T19:24:30.346Z,54.47
2022-11-09T19:26:57.432Z,59.75
2022-11-09T19:29:26.983Z,57.10
2022-11-09T19:31:55.749Z,55.35
2022-11-09T19:34:22.835Z,52.28
2022-11-09T19:36:50.059Z,52.47
2022-11-09T19:39:17.315Z,51.20
2022-11-09T19:41:44.890Z,58.17
2022-11-09T19:44:18.041Z,50.70
2022-11-09T19:46:45.619Z,59.53
2022-11-09T19:49:15.097Z,56.33
2022-11-09T19:51:42.205Z,58.30
2022-11-09T19:54:12.214Z,64.57
2022-11-09T19:56:39.558Z,62.33
2022-11-09T19:59:07.781Z,64.88
2022-11-09T20:01:35.116Z,66.80
2022-11-09T20:04:06.486Z,64.57
2022-11-09T20:06:40.326Z,65.75
2022-11-09T20:09:07.579Z,64.22
2022-11-09T20:11:53.410Z,64.05
2022-11-09T20:14:21.310Z,58.92
2022-11-09T20:16:49.258Z,60.20
2022-11-09T20:19:16.500Z,56.15
2022-11-09T20:21:44.640Z,48.17
2022-11-09T20:24:15.251Z,51.65
2022-11-09T20:26:43.973Z,55.38
2022-11-09T20:29:11.307Z,60.05
2022-11-09T20:31:38.700Z,56.88
2022-11-09T20:34:06.518Z,58.25
2022-11-09T20:36:34.763Z,58.58
2022-11-09T20:39:02.413Z,64.22
2022-11-09T20:41:29.851Z,57.47
2022-11-09T20:44:01.812Z,55.10
2022-11-09T20:46:34.376Z,59.78
2022-11-09T20:49:03.813Z,59.08
2022-11-09T20:51:33.084Z,65.65
2022-11-09T20:54:06.553Z,57.67
2022-11-09T20:56:36.100Z,58.17
2022-11-09T20:59:03.211Z,62.13
2022-11-09T21:01:30.310Z,55.05
2022-11-09T21:03:57.468Z,61.17
2022-11-09T21:06:24.708Z,59.10
2022-11-09T21:08:54.476Z,61.20
2022-11-09T21:11:28.631Z,58.13
2022-11-09T21:13:56.481Z,59.17
2022-11-09T21:16:24.081Z,56.35
2022-11-09T21:18:51.070Z,57.85
2022-11-09T21:21:24.471Z,56.88
2022-11-09T21:24:10.493Z,57.60
2022-11-09T21:26:56.367Z,60.03
2022-11-09T21:29:43.343Z,56.67
2022-11-09T21:32:12.186Z,60.65
2022-11-09T21:34:39.398Z,59.97
2022-11-09T21:37:06.975Z,60.00
2022-11-09T21:39:34.496Z,53.80
2022-11-09T21:42:03.307Z,61.10
2022-11-09T21:44:32.706Z,56.47
2022-11-09T21:47:01.227Z,54.08
2022-11-09T21:49:28.352Z,56.42
2022-11-09T21:51:55.539Z,55.53
2022-11-09T21:54:23.813Z,52.92
2022-11-09T21:56:52.061Z,60.05
2022-11-09T21:59:19.238Z,56.63
2022-11-09T22:01:46.608Z,56.38
2022-11-09T22:04:14.113Z,55.17
2022-11-09T22:06:43.402Z,49.85
2022-11-09T22:09:19.665Z,47.85
2022-11-09T22:12:05.700Z,51.40
2022-11-09T22:14:51.024Z,58.40
2022-11-09T22:17:18.072Z,56.00
2022-11-09T22:20:04.114Z,47.63
2022-11-09T22:22:33.580Z,56.63
2022-11-09T22:25:05.716Z,51.55
2022-11-09T22:27:33.702Z,53.85
2022-11-09T22:30:00.807Z,53.13
2022-11-09T22:32:27.925Z,49.15
2022-11-09T22:34:54.981Z,53.80
2022-11-09T22:37:22.171Z,51.78
2022-11-09T22:39:49.268Z,54.75
2022-11-09T22:42:16.336Z,53.78
2022-11-09T22:44:45.871Z,58.78
2022-11-09T22:47:13.431Z,49.80
2022-11-09T22:49:40.535Z,55.65
2022-11-09T22:52:07.545Z,50.10
2022-11-09T22:54:34.629Z,52.67
2022-11-09T22:57:01.779Z,53.05
2022-11-09T22:59:28.823Z,52.53
2022-11-09T23:01:55.940Z,48.70
2022-11-09T23:04:23.148Z,45.00
2022-11-09T23:06:50.314Z,50.00
2022-11-09T23:09:17.533Z,46.45
2022-11-09T23:11:45.110Z,47.38
2022-11-09T23:14:12.545Z,50.45
2022-11-09T23:16:39.634Z,49.30
2022-11-09T23:19:06.719Z,49.03
2022-11-09T23:21:36.948Z,48.22
2022-11-09T23:24:27.846Z,49.33
2022-11-09T23:26:54.994Z,47.17
2022-11-09T23:29:22.072Z,51.05
2022-11-09T23:31:49.143Z,47.47
2022-11-09T23:34:16.184Z,50.97
2022-11-09T23:36:45.801Z,48.80
2022-11-09T23:39:12.930Z,50.00
2022-11-09T23:41:40.060Z,47.65
2022-11-09T23:44:07.242Z,50.15
2022-11-09T23:46:34.248Z,49.60
2022-11-09T23:49:01.372Z,45.22
2022-11-09T23:51:28.442Z,42.53
2022-11-09T23:53:57.575Z,44.95
2022-11-09T23:56:24.630Z,44.03
2022-11-09T23:58:51.999Z,43.45
